Aviation Digital Data Service (ADDS)

Output produced by TAFs form (0021 UTC 27 June 2017)
found at http://www.aviationweather.gov/adds/tafs/
 
TAF KDOV 270000Z 2700/2806 20009KT 9999 SCT060 QNH3000INS 
     BECMG 2711/2712 29009KT 9999 SCT060 QNH2995INS 
     BECMG 2723/2724 23006KT 9999 BKN060 QNH2997INS TX25/2721Z TN16/2709Z